createdAt,value
2016-04-18T00:00:37.615Z,48.66
2016-04-18T00:01:37.601Z,48.66
2016-04-18T00:02:37.620Z,48.57
2016-04-18T00:03:37.623Z,48.66
2016-04-18T00:04:37.625Z,48.66
2016-04-18T00:05:37.660Z,48.66
2016-04-18T00:06:37.646Z,48.66
2016-04-18T00:07:37.649Z,48.47
2016-04-18T00:08:37.668Z,48.66
2016-04-18T00:09:37.670Z,48.66
2016-04-18T00:10:37.673Z,48.66
2016-04-18T00:11:37.691Z,48.66
2016-04-18T00:12:37.678Z,48.66
2016-04-18T00:13:37.696Z,48.66
2016-04-18T00:14:37.699Z,48.64
2016-04-18T00:15:37.723Z,48.57
2016-04-18T00:16:37.768Z,48.66
2016-04-18T00:17:37.845Z,48.76
2016-04-18T00:18:37.875Z,48.74
2016-04-18T00:19:37.921Z,48.64
2016-04-18T00:20:37.969Z,48.66
2016-04-18T00:21:38.002Z,48.64
2016-04-18T00:22:38.020Z,48.76
2016-04-18T00:23:38.038Z,48.66
2016-04-18T00:24:38.057Z,48.66
2016-04-18T00:25:38.070Z,48.57
2016-04-18T00:26:38.078Z,48.66
2016-04-18T00:27:38.087Z,48.54
2016-04-18T00:28:38.111Z,48.66
2016-04-18T00:29:38.120Z,48.38
2016-04-18T00:30:38.126Z,48.66
2016-04-18T00:31:38.147Z,48.64
2016-04-18T00:32:38.151Z,48.66
2016-04-18T00:33:38.171Z,48.66
2016-04-18T00:34:38.175Z,48.64
2016-04-18T00:35:38.179Z,48.76
2016-04-18T00:36:38.183Z,48.64
2016-04-18T00:37:38.186Z,48.64
2016-04-18T00:38:38.190Z,48.64
2016-04-18T00:39:38.209Z,48.76
2016-04-18T00:40:38.212Z,48.66
2016-04-18T00:41:38.231Z,48.66
2016-04-18T00:42:38.235Z,48.66
2016-04-18T00:43:38.238Z,48.66
2016-04-18T00:44:38.256Z,48.57
2016-04-18T00:45:38.244Z,48.64
2016-04-18T00:46:38.261Z,48.66
2016-04-18T00:47:38.264Z,48.57
2016-04-18T00:48:38.282Z,48.64
2016-04-18T00:49:38.270Z,48.64
2016-04-18T00:50:38.289Z,48.57
2016-04-18T00:51:38.291Z,48.64
2016-04-18T00:52:38.309Z,48.64
2016-04-18T00:53:38.311Z,48.76
2016-04-18T00:54:38.314Z,48.74
2016-04-18T00:55:38.317Z,48.64
2016-04-18T00:56:38.320Z,48.64
2016-04-18T00:57:38.322Z,48.57
2016-04-18T00:58:38.341Z,48.64
2016-04-18T00:59:38.344Z,48.66
2016-04-18T01:00:38.363Z,48.64
2016-04-18T01:01:38.365Z,48.54
2016-04-18T01:02:38.368Z,48.66
2016-04-18T01:03:38.370Z,48.64
2016-04-18T01:04:38.373Z,48.54
2016-04-18T01:05:38.391Z,48.64
2016-04-18T01:06:38.394Z,48.64
2016-04-18T01:07:38.396Z,48.64
2016-04-18T01:08:38.415Z,48.64
2016-04-18T01:09:38.417Z,48.54
2016-04-18T01:10:38.420Z,48.66
2016-04-18T01:11:38.439Z,48.66
2016-04-18T01:12:38.426Z,48.64
2016-04-18T01:13:38.459Z,48.74
2016-04-18T01:14:38.447Z,48.64
2016-04-18T01:15:38.449Z,48.47
2016-04-18T01:16:38.467Z,48.74
2016-04-18T01:17:38.470Z,48.64
2016-04-18T01:18:38.472Z,48.64
2016-04-18T01:19:38.492Z,48.64
2016-04-18T01:20:38.494Z,48.64
2016-04-18T01:21:38.496Z,48.64
2016-04-18T01:22:38.500Z,48.64
2016-04-18T01:23:38.517Z,48.76
2016-04-18T01:24:38.519Z,48.64
2016-04-18T01:25:38.539Z,48.74
2016-04-18T01:26:38.542Z,48.64
2016-04-18T01:27:38.543Z,48.74
2016-04-18T01:28:38.563Z,48.54
2016-04-18T01:29:38.549Z,48.64
2016-04-18T01:30:38.568Z,48.66
2016-04-18T01:31:38.586Z,48.76
2016-04-18T01:32:38.604Z,48.66
2016-04-18T01:33:38.591Z,48.64
2016-04-18T01:34:38.579Z,48.76
2016-04-18T01:35:38.597Z,48.74
2016-04-18T01:36:38.599Z,48.66
2016-04-18T01:37:38.602Z,48.64
2016-04-18T01:38:38.620Z,48.64
2016-04-18T01:39:38.623Z,48.54
2016-04-18T01:40:38.641Z,48.64
2016-04-18T01:41:38.645Z,48.64
2016-04-18T01:42:38.631Z,48.64
2016-04-18T01:43:38.650Z,48.64
2016-04-18T01:44:38.653Z,48.76
2016-04-18T01:45:38.671Z,48.64
2016-04-18T01:46:38.673Z,48.64
2016-04-18T01:47:38.676Z,48.64
2016-04-18T01:48:38.678Z,48.64
2016-04-18T01:49:38.681Z,48.64
2016-04-18T01:50:38.699Z,48.64
2016-04-18T01:51:38.717Z,48.64
2016-04-18T01:52:38.705Z,48.64
2016-04-18T01:53:38.723Z,48.64
2016-04-18T01:54:38.725Z,48.64
2016-04-18T01:55:38.728Z,48.64
2016-04-18T01:56:38.747Z,48.64
2016-04-18T01:57:38.750Z,48.64
2016-04-18T01:58:38.752Z,48.64
2016-04-18T01:59:38.755Z,48.64
2016-04-18T02:00:38.757Z,48.54
2016-04-18T02:01:38.776Z,48.64
2016-04-18T02:02:38.779Z,48.64
2016-04-18T02:03:38.781Z,48.66
2016-04-18T02:04:38.800Z,48.64
2016-04-18T02:05:38.802Z,48.66
2016-04-18T02:06:38.804Z,48.64
2016-04-18T02:07:38.807Z,48.66
2016-04-18T02:08:38.843Z,48.64
2016-04-18T02:09:38.829Z,48.66
2016-04-18T02:10:38.831Z,48.64
2016-04-18T02:11:38.850Z,48.64
2016-04-18T02:12:38.837Z,48.64
2016-04-18T02:13:38.856Z,48.64
2016-04-18T02:14:38.858Z,48.64
2016-04-18T02:15:38.861Z,48.64
2016-04-18T02:16:38.879Z,48.64
2016-04-18T02:17:38.881Z,48.64
2016-04-18T02:18:38.900Z,48.64
2016-04-18T02:19:38.918Z,48.64
2016-04-18T02:20:38.921Z,48.64
2016-04-18T02:21:38.923Z,48.64
2016-04-18T02:22:38.911Z,48.64
2016-04-18T02:23:38.928Z,48.64
2016-04-18T02:24:38.931Z,48.64
2016-04-18T02:25:38.933Z,48.64
2016-04-18T02:26:38.937Z,48.64
2016-04-18T02:27:38.955Z,48.64
2016-04-18T02:28:38.958Z,48.64
2016-04-18T02:29:38.977Z,48.64
2016-04-18T02:30:38.979Z,48.66
2016-04-18T02:31:38.982Z,48.64
2016-04-18T02:32:39.000Z,48.54
2016-04-18T02:33:39.002Z,48.64
2016-04-18T02:34:38.990Z,48.64
2016-04-18T02:35:39.008Z,48.64
2016-04-18T02:36:39.010Z,48.64
2016-04-18T02:37:39.029Z,48.64
2016-04-18T02:38:39.031Z,48.54
2016-04-18T02:39:39.035Z,48.64
2016-04-18T02:40:39.038Z,48.64
2016-04-18T02:41:39.040Z,48.64
2016-04-18T02:42:39.059Z,48.64
2016-04-18T02:43:39.061Z,48.64
2016-04-18T02:44:39.078Z,48.64
2016-04-18T02:45:39.066Z,48.64
2016-04-18T02:46:39.084Z,48.54
2016-04-18T02:47:39.087Z,48.54
2016-04-18T02:48:39.089Z,48.54
2016-04-18T02:49:39.108Z,48.64
2016-04-18T02:50:39.111Z,48.64
2016-04-18T02:51:39.114Z,48.64
2016-04-18T02:52:39.131Z,48.64
2016-04-18T02:53:39.134Z,48.64
2016-04-18T02:54:39.137Z,48.54
2016-04-18T02:55:39.140Z,48.64
2016-04-18T02:56:39.158Z,48.54
2016-04-18T02:57:39.161Z,48.64
2016-04-18T02:58:39.163Z,48.64
2016-04-18T02:59:39.167Z,48.64
2016-04-18T03:00:39.168Z,48.54
2016-04-18T03:01:39.203Z,48.66
2016-04-18T03:02:39.190Z,48.64
2016-04-18T03:03:39.193Z,48.54
2016-04-18T03:04:39.210Z,48.64
2016-04-18T03:05:39.213Z,48.64
2016-04-18T03:06:39.216Z,48.64
2016-04-18T03:07:39.219Z,48.54
2016-04-18T03:08:39.238Z,48.54
2016-04-18T03:09:39.241Z,48.54
2016-04-18T03:10:39.259Z,48.64
2016-04-18T03:11:39.246Z,48.64
2016-04-18T03:12:39.264Z,48.54
2016-04-18T03:13:39.267Z,48.54
2016-04-18T03:14:39.270Z,48.64
2016-04-18T03:15:39.288Z,48.64
2016-04-18T03:16:39.290Z,48.54
2016-04-18T03:17:39.293Z,48.64
2016-04-18T03:18:39.312Z,48.54
2016-04-18T03:19:39.314Z,48.54
2016-04-18T03:20:39.317Z,48.54
2016-04-18T03:21:39.319Z,48.54
2016-04-18T03:22:39.322Z,48.54
2016-04-18T03:23:39.340Z,48.64
2016-04-18T03:24:39.343Z,48.54
2016-04-18T03:25:39.345Z,48.64
2016-04-18T03:26:39.364Z,48.64
2016-04-18T03:27:39.366Z,48.54
2016-04-18T03:28:39.369Z,48.54
2016-04-18T03:29:39.371Z,48.54
2016-04-18T03:30:39.390Z,48.64
2016-04-18T03:31:39.393Z,48.64
2016-04-18T03:32:39.396Z,48.64
2016-04-18T03:33:39.399Z,48.54
2016-04-18T03:34:39.401Z,48.64
2016-04-18T03:35:39.419Z,48.54
2016-04-18T03:36:39.421Z,48.64
2016-04-18T03:37:39.440Z,48.64
2016-04-18T03:38:39.443Z,48.54
2016-04-18T03:39:39.446Z,48.83
2016-04-18T03:40:39.465Z,48.64
2016-04-18T03:41:39.467Z,48.54
2016-04-18T03:42:39.454Z,48.64
2016-04-18T03:43:39.473Z,48.54
2016-04-18T03:44:39.475Z,48.64
2016-04-18T03:45:39.493Z,48.54
2016-04-18T03:46:39.495Z,48.74
2016-04-18T03:47:39.499Z,48.54
2016-04-18T03:48:39.517Z,48.83
2016-04-18T03:49:39.520Z,48.54
2016-04-18T03:50:39.522Z,48.54
2016-04-18T03:51:39.540Z,48.54
2016-04-18T03:52:39.543Z,48.54
2016-04-18T03:53:39.389Z,48.83
2016-04-18T03:54:39.564Z,48.54
2016-04-18T03:55:39.550Z,48.74
2016-04-18T03:56:39.569Z,48.54
2016-04-18T03:57:39.572Z,48.54
2016-04-18T03:58:39.575Z,48.74
2016-04-18T03:59:39.578Z,48.83
2016-04-18T04:00:39.596Z,48.74
2016-04-18T04:01:39.599Z,48.74
2016-04-18T04:02:39.602Z,48.83
2016-04-18T04:03:39.605Z,48.74
2016-04-18T04:04:39.622Z,48.74
2016-04-18T04:05:39.625Z,48.64
2016-04-18T04:06:39.627Z,48.74
2016-04-18T04:07:39.630Z,48.74
2016-04-18T04:08:39.649Z,48.74
2016-04-18T04:09:39.651Z,48.83
2016-04-18T04:10:39.654Z,48.83
2016-04-18T04:11:39.657Z,48.54
2016-04-18T04:12:39.660Z,48.74
2016-04-18T04:13:39.678Z,48.74
2016-04-18T04:14:39.681Z,48.74
2016-04-18T04:15:39.684Z,48.74
2016-04-18T04:16:39.701Z,48.64
2016-04-18T04:17:39.704Z,48.74
2016-04-18T04:18:39.707Z,48.74
2016-04-18T04:19:39.709Z,48.83
2016-04-18T04:20:39.728Z,48.74
2016-04-18T04:21:39.730Z,48.74
2016-04-18T04:22:39.734Z,48.83
2016-04-18T04:23:39.736Z,48.74
2016-04-18T04:24:39.848Z,48.83
2016-04-18T04:25:39.757Z,48.74
2016-04-18T04:26:39.759Z,48.74
2016-04-18T04:27:39.778Z,48.83
2016-04-18T04:28:39.780Z,48.83
2016-04-18T04:29:39.784Z,48.74
2016-04-18T04:30:39.786Z,48.83
2016-04-18T04:31:39.805Z,48.74
2016-04-18T04:32:39.791Z,48.83
2016-04-18T04:33:39.825Z,48.74
2016-04-18T04:34:39.813Z,48.74
2016-04-18T04:35:39.815Z,48.74
2016-04-18T04:36:39.833Z,48.83
2016-04-18T04:37:39.835Z,48.74
2016-04-18T04:38:39.838Z,48.74
2016-04-18T04:39:40.029Z,48.83
2016-04-18T04:40:39.860Z,48.74
2016-04-18T04:41:39.863Z,48.83
2016-04-18T04:42:39.865Z,48.83
2016-04-18T04:43:39.884Z,48.83
2016-04-18T04:44:39.886Z,48.83
2016-04-18T04:45:39.889Z,48.83
2016-04-18T04:46:39.891Z,48.74
2016-04-18T04:47:39.893Z,48.74
2016-04-18T04:48:39.911Z,48.74
2016-04-18T04:49:39.914Z,48.83
2016-04-18T04:50:39.933Z,48.74
2016-04-18T04:51:39.936Z,48.74
2016-04-18T04:52:39.938Z,48.74
2016-04-18T04:53:39.941Z,48.83
2016-04-18T04:54:40.069Z,48.74
2016-04-18T04:55:39.961Z,48.83
2016-04-18T04:56:39.964Z,48.74
2016-04-18T04:57:39.983Z,48.83
2016-04-18T04:58:39.985Z,48.83
2016-04-18T04:59:39.988Z,48.74
2016-04-18T05:00:40.007Z,48.83
2016-04-18T05:01:39.993Z,48.83
2016-04-18T05:02:40.012Z,48.74
2016-04-18T05:03:40.014Z,48.74
2016-04-18T05:04:40.017Z,48.74
2016-04-18T05:05:40.035Z,48.74
2016-04-18T05:06:40.038Z,48.74
2016-04-18T05:07:40.041Z,48.64
2016-04-18T05:08:40.043Z,48.74
2016-04-18T05:09:40.218Z,48.64
2016-04-18T05:10:40.064Z,48.74
2016-04-18T05:11:40.067Z,48.74
2016-04-18T05:12:40.086Z,48.83
2016-04-18T05:13:40.088Z,48.64
2016-04-18T05:14:40.091Z,48.74
2016-04-18T05:15:40.094Z,48.64
2016-04-18T05:16:40.097Z,48.74
2016-04-18T05:17:40.114Z,48.83
2016-04-18T05:18:40.117Z,48.64
2016-04-18T05:19:40.119Z,48.74
2016-04-18T05:20:40.138Z,48.74
2016-04-18T05:21:40.141Z,48.74
2016-04-18T05:22:40.144Z,48.44
2016-04-18T05:23:40.161Z,48.74
2016-04-18T05:24:40.008Z,48.74
2016-04-18T05:25:40.167Z,48.64
2016-04-18T05:26:40.263Z,48.74
2016-04-18T05:27:40.172Z,48.74
2016-04-18T05:28:40.190Z,48.54
2016-04-18T05:29:40.199Z,48.64
2016-04-18T05:30:40.233Z,48.93
2016-04-18T05:31:40.205Z,48.64
2016-04-18T05:32:40.208Z,49.02
2016-04-18T05:33:40.210Z,48.83
2016-04-18T05:34:40.229Z,48.93
2016-04-18T05:35:40.231Z,48.83
2016-04-18T05:36:40.234Z,48.74
2016-04-18T05:37:40.252Z,48.64
2016-04-18T05:38:40.255Z,48.64
2016-04-18T05:39:40.321Z,48.93
2016-04-18T05:40:40.276Z,48.54
2016-04-18T05:41:40.263Z,48.83
2016-04-18T05:42:40.281Z,48.83
2016-04-18T05:43:40.284Z,48.74
2016-04-18T05:44:40.286Z,48.83
2016-04-18T05:45:40.289Z,48.83
2016-04-18T05:46:40.307Z,48.83
2016-04-18T05:47:40.309Z,48.83
2016-04-18T05:48:40.313Z,48.74
2016-04-18T05:49:40.331Z,48.54
2016-04-18T05:50:40.334Z,48.83
2016-04-18T05:51:40.336Z,48.83
2016-04-18T05:52:40.355Z,48.83
2016-04-18T05:53:40.358Z,48.93
2016-04-18T05:54:40.408Z,48.83
2016-04-18T05:55:40.364Z,48.83
2016-04-18T05:56:40.382Z,48.74
2016-04-18T05:57:40.400Z,48.74
2016-04-18T05:58:40.387Z,48.74
2016-04-18T05:59:40.389Z,48.93
2016-04-18T06:00:40.392Z,48.93
2016-04-18T06:01:40.410Z,49.7
2016-04-18T06:02:40.413Z,50.09
2016-04-18T06:03:40.416Z,50.27
2016-04-18T06:04:40.419Z,51.34
2016-04-18T06:05:40.438Z,51.24
2016-04-18T06:06:40.440Z,50.95
2016-04-18T06:07:40.286Z,51.43
2016-04-18T06:08:40.460Z,52.01
2016-04-18T06:09:40.526Z,51.72
2016-04-18T06:10:40.465Z,51.53
2016-04-18T06:11:40.499Z,51.92
2016-04-18T06:12:40.471Z,52.11
2016-04-18T06:13:40.490Z,52.4
2016-04-18T06:14:39.758Z,52.59
2016-04-18T06:15:40.495Z,52.01
2016-04-18T06:16:40.498Z,51.72
2016-04-18T06:17:40.515Z,51.82
2016-04-18T06:18:40.519Z,51.92
2016-04-18T06:19:40.537Z,51.92
2016-04-18T06:20:40.540Z,51.92
2016-04-18T06:21:40.542Z,52.01
2016-04-18T06:22:40.545Z,51.92
2016-04-18T06:23:40.563Z,51.43
2016-04-18T06:24:40.613Z,51.62
2016-04-18T06:25:40.569Z,51.92
2016-04-18T06:26:40.572Z,51.53
2016-04-18T06:27:40.590Z,51.92
2016-04-18T06:28:40.592Z,52.11
2016-04-18T06:29:40.611Z,52.01
2016-04-18T06:30:40.614Z,52.11
2016-04-18T06:31:40.616Z,52.01
2016-04-18T06:32:40.619Z,51.82
2016-04-18T06:33:40.621Z,51.72
2016-04-18T06:34:40.625Z,51.53
2016-04-18T06:35:40.627Z,51.92
2016-04-18T06:36:40.646Z,51.53
2016-04-18T06:37:40.664Z,51.53
2016-04-18T06:38:40.651Z,51.53
2016-04-18T06:39:40.668Z,51.53
2016-04-18T06:40:40.672Z,51.53
2016-04-18T06:41:40.674Z,51.53
2016-04-18T06:42:40.693Z,51.53
2016-04-18T06:43:40.696Z,51.43
2016-04-18T06:44:40.698Z,51.34
2016-04-18T06:45:40.701Z,51.14
2016-04-18T06:46:40.718Z,51.34
2016-04-18T06:47:40.971Z,51.34
2016-04-18T06:48:40.724Z,51.34
2016-04-18T06:49:40.743Z,51.14
2016-04-18T06:50:40.730Z,51.14
2016-04-18T06:51:40.748Z,51.14
2016-04-18T06:52:40.751Z,51.24
2016-04-18T06:53:40.753Z,51.05
2016-04-18T06:54:40.772Z,51.24
2016-04-18T06:55:40.790Z,51.14
2016-04-18T06:56:40.778Z,51.17
2016-04-18T06:57:41.436Z,50.66
2016-04-18T06:58:40.783Z,50.85
2016-04-18T06:59:40.816Z,50.57
2016-04-18T07:00:40.803Z,50.69
2016-04-18T07:01:40.821Z,50.85
2016-04-18T07:02:40.824Z,50.76
2016-04-18T07:03:40.811Z,50.57
2016-04-18T07:04:40.829Z,50.69
2016-04-18T07:05:40.848Z,50.76
2016-04-18T07:06:40.835Z,50.76
2016-04-18T07:07:40.854Z,50.76
2016-04-18T07:08:40.872Z,50.57
2016-04-18T07:09:40.860Z,50.69
2016-04-18T07:10:40.862Z,50.66
2016-04-18T07:11:40.880Z,50.88
2016-04-18T07:12:40.913Z,50.78
2016-04-18T07:13:40.885Z,50.59
2016-04-18T07:14:40.918Z,50.78
2016-04-18T07:15:40.922Z,50.49
2016-04-18T07:16:40.909Z,50.69
2016-04-18T07:17:40.912Z,50.18
2016-04-18T07:18:40.929Z,50.57
2016-04-18T07:19:40.932Z,50.66
2016-04-18T07:20:40.934Z,50.47
2016-04-18T07:21:40.945Z,50.57
2016-04-18T07:22:40.947Z,50.57
2016-04-18T07:23:40.966Z,50.21
2016-04-18T07:24:40.969Z,50.57
2016-04-18T07:25:40.972Z,50.59
2016-04-18T07:26:40.989Z,50.3
2016-04-18T07:27:40.992Z,50.59
2016-04-18T07:28:40.995Z,50.49
2016-04-18T07:29:40.997Z,50.4
2016-04-18T07:30:41.000Z,50.3
2016-04-18T07:31:41.019Z,50.37
2016-04-18T07:32:41.021Z,50.3
2016-04-18T07:33:41.024Z,50.4
2016-04-18T07:34:41.043Z,50.4
2016-04-18T07:35:41.045Z,50.18
2016-04-18T07:36:41.048Z,50.3
2016-04-18T07:37:41.065Z,50.4
2016-04-18T07:38:41.084Z,50.27
2016-04-18T07:39:41.071Z,50.11
2016-04-18T07:40:41.073Z,50.11
2016-04-18T07:41:41.076Z,50.01
2016-04-18T07:42:41.095Z,49.91
2016-04-18T07:43:41.097Z,50.11
2016-04-18T07:44:41.100Z,50.01
2016-04-18T07:45:41.103Z,50.01
2016-04-18T07:46:41.121Z,50.01
2016-04-18T07:47:41.124Z,50.21
2016-04-18T07:48:41.158Z,50.01
2016-04-18T07:49:41.145Z,50.01
2016-04-18T07:50:41.148Z,50.11
2016-04-18T07:51:41.151Z,49.91
2016-04-18T07:52:41.356Z,49.99
2016-04-18T07:53:41.172Z,49.89
2016-04-18T07:54:41.174Z,49.99
2016-04-18T07:55:41.177Z,50.01
2016-04-18T07:56:41.179Z,50.01
2016-04-18T07:57:41.197Z,50.11
2016-04-18T07:58:41.200Z,50.11
2016-04-18T07:59:41.203Z,50.01
2016-04-18T08:00:41.205Z,50.11
2016-04-18T08:01:41.208Z,50.21
2016-04-18T08:02:41.820Z,49.91
2016-04-18T08:03:41.230Z,50.01
2016-04-18T08:04:41.248Z,49.91
2016-04-18T08:05:41.251Z,49.99
2016-04-18T08:06:41.253Z,49.91
2016-04-18T08:07:41.256Z,50.01
2016-04-18T08:08:41.274Z,50.21
2016-04-18T08:09:41.277Z,50.01
2016-04-18T08:10:41.279Z,50.21
2016-04-18T08:11:41.282Z,49.91
2016-04-18T08:12:41.284Z,50.01
2016-04-18T08:13:41.303Z,49.82
2016-04-18T08:14:41.306Z,49.6
2016-04-18T08:15:41.308Z,50.01
2016-04-18T08:16:41.327Z,49.82
2016-04-18T08:17:41.330Z,49.63
2016-04-18T08:18:41.176Z,49.7
2016-04-18T08:19:41.335Z,49.63
2016-04-18T08:20:41.354Z,49.73
2016-04-18T08:21:41.356Z,49.7
2016-04-18T08:22:41.375Z,49.6
2016-04-18T08:23:41.378Z,49.63
2016-04-18T08:24:41.381Z,49.73
2016-04-18T08:25:41.383Z,49.53
2016-04-18T08:26:41.400Z,49.63
2016-04-18T08:27:41.403Z,49.53
2016-04-18T08:28:41.405Z,49.63
2016-04-18T08:29:41.455Z,49.53
2016-04-18T08:30:41.411Z,49.53
2016-04-18T08:31:41.430Z,49.53
2016-04-18T08:32:41.433Z,49.73
2016-04-18T08:33:41.452Z,49.63
2016-04-18T08:34:41.438Z,49.73
2016-04-18T08:35:41.456Z,49.24
2016-04-18T08:36:41.460Z,49.15
2016-04-18T08:37:41.477Z,49.05
2016-04-18T08:38:41.480Z,49.15
2016-04-18T08:39:41.499Z,49.15
2016-04-18T08:40:41.485Z,48.95
2016-04-18T08:41:41.488Z,49.05
2016-04-18T08:42:41.506Z,49.05
2016-04-18T08:43:41.509Z,48.95
2016-04-18T08:44:41.512Z,49.05
2016-04-18T08:45:41.531Z,48.95
2016-04-18T08:46:41.533Z,48.95
2016-04-18T08:47:41.536Z,48.95
2016-04-18T08:48:41.553Z,48.86
2016-04-18T08:49:41.541Z,48.95
2016-04-18T08:50:41.559Z,48.95
2016-04-18T08:51:41.578Z,48.86
2016-04-18T08:52:41.565Z,48.76
2016-04-18T08:53:41.583Z,48.66
2016-04-18T08:54:41.586Z,48.66
2016-04-18T08:55:41.589Z,48.66
2016-04-18T08:56:41.591Z,48.76
2016-04-18T08:57:41.608Z,48.66
2016-04-18T08:58:41.611Z,48.69
2016-04-18T08:59:41.614Z,48.57
2016-04-18T09:00:41.648Z,48.69
2016-04-18T09:01:41.652Z,48.59
2016-04-18T09:02:41.654Z,48.49
2016-04-18T09:03:41.657Z,48.49
2016-04-18T09:04:41.659Z,48.49
2016-04-18T09:05:41.663Z,48.49
2016-04-18T09:06:41.665Z,48.49
2016-04-18T09:07:41.683Z,48.4
2016-04-18T09:08:41.686Z,48.59
2016-04-18T09:09:41.689Z,48.49
2016-04-18T09:10:41.784Z,48.4
2016-04-18T09:11:41.709Z,48.4
2016-04-18T09:13:13.073Z,48.69
2016-04-18T09:13:41.714Z,48.59
2016-04-18T09:14:41.718Z,48.66
2016-04-18T09:15:41.736Z,48.69
2016-04-18T09:16:41.739Z,48.57
2016-04-18T09:17:41.741Z,48.59
2016-04-18T09:18:41.759Z,48.59
2016-04-18T09:19:41.762Z,48.69
2016-04-18T09:20:41.781Z,48.66
2016-04-18T09:21:41.808Z,48.66
2016-04-18T09:22:41.853Z,48.76
2016-04-18T09:23:41.898Z,48.66
2016-04-18T09:24:41.943Z,48.79
2016-04-18T09:25:41.986Z,48.59
2016-04-18T09:26:42.030Z,48.69
2016-04-18T09:27:42.048Z,48.57
2016-04-18T09:28:42.067Z,48.69
2016-04-18T09:29:42.100Z,48.86
2016-04-18T09:30:42.119Z,48.86
2016-04-18T09:31:42.131Z,48.59
2016-04-18T09:32:42.155Z,48.57
2016-04-18T09:33:42.162Z,48.69
2016-04-18T09:34:42.170Z,48.57
2016-04-18T09:35:42.194Z,48.66
2016-04-18T09:36:42.200Z,48.86
2016-04-18T09:37:42.251Z,48.66
2016-04-18T09:38:42.210Z,48.57
2016-04-18T09:39:42.229Z,48.76
2016-04-18T09:40:42.250Z,48.76
2016-04-18T09:41:42.238Z,48.66
2016-04-18T09:42:42.258Z,48.66
2016-04-18T09:43:42.261Z,48.47
2016-04-18T09:44:42.264Z,48.66
2016-04-18T09:45:42.268Z,48.66
2016-04-18T09:46:42.286Z,48.66
2016-04-18T09:47:42.289Z,48.57
2016-04-18T09:48:42.308Z,48.66
2016-04-18T09:49:42.294Z,48.76
2016-04-18T09:50:42.296Z,48.76
2016-04-18T09:51:42.315Z,48.76
2016-04-18T09:52:42.318Z,48.95
2016-04-18T09:53:42.335Z,48.66
2016-04-18T09:54:42.323Z,48.66
2016-04-18T09:55:42.357Z,48.76
2016-04-18T09:56:42.360Z,48.66
2016-04-18T09:57:42.347Z,48.66
2016-04-18T09:58:42.365Z,48.76
2016-04-18T09:59:42.368Z,48.66
2016-04-18T10:00:42.371Z,48.4
2016-04-18T10:01:42.404Z,48.76
2016-04-18T10:02:42.392Z,48.76
2016-04-18T10:03:42.394Z,48.76
2016-04-18T10:04:42.397Z,48.66
2016-04-18T10:05:42.415Z,48.66
2016-04-18T10:06:42.418Z,48.57
2016-04-18T10:07:42.421Z,48.76
2016-04-18T10:08:42.439Z,48.66
2016-04-18T10:09:42.442Z,48.79
2016-04-18T10:10:42.461Z,48.76
2016-04-18T10:11:42.447Z,48.76
2016-04-18T10:12:42.453Z,48.86
2016-04-18T10:13:42.472Z,48.66
2016-04-18T10:14:42.474Z,48.86
2016-04-18T10:15:42.477Z,48.76
2016-04-18T10:16:42.495Z,48.66
2016-04-18T10:17:42.498Z,48.76
2016-04-18T10:18:42.500Z,48.57
2016-04-18T10:19:42.518Z,48.76
2016-04-18T10:20:42.505Z,48.76
2016-04-18T10:21:42.524Z,48.66
2016-04-18T10:22:42.527Z,48.66
2016-04-18T10:23:42.544Z,48.76
2016-04-18T10:24:43.454Z,48.86
2016-04-18T10:25:42.644Z,48.86
2016-04-18T10:26:42.552Z,48.76
2016-04-18T10:27:43.259Z,48.76
2016-04-18T10:28:42.574Z,48.76
2016-04-18T10:29:42.577Z,48.86
2016-04-18T10:30:42.595Z,48.57
2016-04-18T10:31:42.598Z,48.66
2016-04-18T10:32:42.600Z,48.76
2016-04-18T10:33:42.618Z,48.66
2016-04-18T10:34:42.606Z,48.66
2016-04-18T10:35:42.624Z,48.66
2016-04-18T10:36:42.627Z,48.38
2016-04-18T10:37:42.645Z,48.57
2016-04-18T10:38:42.648Z,48.47
2016-04-18T10:39:42.650Z,48.59
2016-04-18T10:40:42.685Z,48.3
2016-04-18T10:41:42.655Z,48.57
2016-04-18T10:42:42.674Z,48.69
2016-04-18T10:43:42.677Z,48.47
2016-04-18T10:44:42.680Z,48.57
2016-04-18T10:45:42.697Z,48.57
2016-04-18T10:46:42.701Z,48.57
2016-04-18T10:47:42.703Z,48.47
2016-04-18T10:48:42.722Z,48.57
2016-04-18T10:49:42.725Z,48.49
2016-04-18T10:50:42.728Z,48.57
2016-04-18T10:51:42.729Z,48.49
2016-04-18T10:52:42.747Z,48.4
2016-04-18T10:53:42.750Z,48.59
2016-04-18T10:54:42.753Z,48.38
2016-04-18T10:55:42.787Z,48.49
2016-04-18T10:56:42.993Z,48.49
2016-04-18T10:57:42.777Z,48.4
2016-04-18T10:58:42.810Z,48.49
2016-04-18T10:59:42.799Z,48.49
2016-04-18T11:00:42.801Z,48.11
2016-04-18T11:01:42.804Z,48.21
2016-04-18T11:02:42.806Z,48.3
2016-04-18T11:03:42.824Z,48.4
2016-04-18T11:04:42.826Z,48.4
2016-04-18T11:05:42.845Z,47.92
2016-04-18T11:06:42.848Z,47.82
2016-04-18T11:07:42.850Z,47.72
2016-04-18T11:08:42.853Z,47.65
2016-04-18T11:09:42.872Z,47.45
2016-04-18T11:10:42.937Z,47.65
2016-04-18T11:11:42.877Z,47.45
2016-04-18T11:12:42.880Z,47.45
2016-04-18T11:13:42.898Z,47.65
2016-04-18T11:14:42.916Z,47.55
2016-04-18T11:15:42.904Z,47.36
2016-04-18T11:16:42.922Z,47.36
2016-04-18T11:17:42.769Z,47.45
2016-04-18T11:18:42.771Z,47.17
2016-04-18T11:19:42.930Z,47.36
2016-04-18T11:20:42.948Z,47.36
2016-04-18T11:21:42.950Z,47.36
2016-04-18T11:22:42.954Z,47.45
2016-04-18T11:23:42.956Z,47.36
2016-04-18T11:24:42.975Z,47.36
2016-04-18T11:25:42.977Z,47.27
2016-04-18T11:26:42.980Z,47.27
2016-04-18T11:27:42.998Z,47.07
2016-04-18T11:28:43.002Z,47.27
2016-04-18T11:29:43.019Z,47.17
2016-04-18T11:30:43.037Z,47.17
2016-04-18T11:31:43.024Z,47.07
2016-04-18T11:32:43.027Z,47.17
2016-04-18T11:33:43.046Z,47.27
2016-04-18T11:34:43.049Z,47
2016-04-18T11:35:43.051Z,47.19
2016-04-18T11:36:43.053Z,47.17
2016-04-18T11:37:43.072Z,46.97
2016-04-18T11:38:43.075Z,46.81
2016-04-18T11:39:43.093Z,47
2016-04-18T11:40:43.018Z,47.27
2016-04-18T11:41:43.098Z,47.07
2016-04-18T11:42:43.101Z,47.17
2016-04-18T11:43:43.119Z,47.07
2016-04-18T11:44:43.122Z,47.27
2016-04-18T11:45:43.125Z,47.17
2016-04-18T11:46:43.143Z,47.36
2016-04-18T11:47:43.145Z,47.45
2016-04-18T11:48:43.148Z,47.07
2016-04-18T11:49:43.151Z,47
2016-04-18T11:50:43.169Z,47.17
2016-04-18T11:51:43.172Z,47.07
2016-04-18T11:52:43.175Z,47.07
2016-04-18T11:53:43.037Z,47.07
2016-04-18T11:54:43.197Z,47.17
2016-04-18T11:55:43.214Z,47.09
2016-04-18T11:56:43.202Z,47.09
2016-04-18T11:57:43.219Z,47
2016-04-18T11:58:43.222Z,46.71
2016-04-18T11:59:43.224Z,47.19
2016-04-18T12:00:43.243Z,47
2016-04-18T12:01:43.246Z,47.27
2016-04-18T12:02:43.265Z,47.17
2016-04-18T12:03:43.267Z,47.45
2016-04-18T12:04:43.286Z,47.27
2016-04-18T12:05:43.287Z,47.09
2016-04-18T12:06:43.290Z,47.27
2016-04-18T12:07:43.293Z,46.9
2016-04-18T12:08:43.312Z,47.09
2016-04-18T12:09:43.315Z,47.29
2016-04-18T12:10:43.317Z,46.9
2016-04-18T12:11:43.335Z,47.29
2016-04-18T12:12:43.338Z,46.71
2016-04-18T12:13:43.340Z,47
2016-04-18T12:14:43.343Z,47
2016-04-18T12:15:43.361Z,47.17
2016-04-18T12:16:43.364Z,47.09
2016-04-18T12:17:43.367Z,46.9
2016-04-18T12:18:43.369Z,47
2016-04-18T12:19:43.388Z,46.81
2016-04-18T12:20:43.391Z,47
2016-04-18T12:21:43.237Z,46.61
2016-04-18T12:22:43.411Z,46.51
2016-04-18T12:23:43.415Z,46.61
2016-04-18T12:24:43.416Z,46.51
2016-04-18T12:25:43.435Z,46.42
2016-04-18T12:26:43.455Z,46.51
2016-04-18T12:27:43.441Z,46.42
2016-04-18T12:28:43.444Z,46.61
2016-04-18T12:29:43.463Z,46.71
2016-04-18T12:30:43.465Z,46.9
2016-04-18T12:31:43.468Z,46.81
2016-04-18T12:32:43.486Z,46.42
2016-04-18T12:33:43.488Z,46.42
2016-04-18T12:34:43.507Z,46.61
2016-04-18T12:35:43.510Z,46.33
2016-04-18T12:36:43.512Z,46.71
2016-04-18T12:37:43.530Z,46.51
2016-04-18T12:38:43.518Z,46.71
2016-04-18T12:39:43.535Z,46.42
2016-04-18T12:40:43.554Z,46.33
2016-04-18T12:41:43.541Z,46.51
2016-04-18T12:42:43.559Z,46.71
2016-04-18T12:43:43.562Z,46.51
2016-04-18T12:44:43.581Z,46.42
2016-04-18T12:45:43.583Z,46.61
2016-04-18T12:46:43.601Z,46.42
2016-04-18T12:47:43.604Z,46.42
2016-04-18T12:48:43.607Z,46.61
2016-04-18T12:49:43.609Z,46.51
2016-04-18T12:50:43.612Z,46.51
2016-04-18T12:51:43.631Z,46.61
2016-04-18T12:52:43.633Z,46.81
2016-04-18T12:53:43.636Z,46.51
2016-04-18T12:54:43.654Z,46.61